sensor_id;sensor_type;location;lat;lon;timestamp;temperature;humidity
21815;DHT22;11069;48.988;8.450;2024-02-21T00:00:36;7.60;99.90
21815;DHT22;11069;48.988;8.450;2024-02-21T00:03:04;7.60;99.90
21815;DHT22;11069;48.988;8.450;2024-02-21T00:05:30;7.60;99.90
21815;DHT22;11069;48.988;8.450;2024-02-21T00:07:55;7.60;99.90
21815;DHT22;11069;48.988;8.450;2024-02-21T00:10:21;7.80;99.90
21815;DHT22;11069;48.988;8.450;2024-02-21T00:12:47;7.70;99.90
21815;DHT22;11069;48.988;8.450;2024-02-21T00:15:12;7.80;99.90
21815;DHT22;11069;48.988;8.450;2024-02-21T00:17:38;7.80;99.90
21815;DHT22;11069;48.988;8.450;2024-02-21T00:20:04;7.70;99.90
21815;DHT22;11069;48.988;8.450;2024-02-21T00:22:30;7.70;99.90
21815;DHT22;11069;48.988;8.450;2024-02-21T00:24:56;7.70;99.90
21815;DHT22;11069;48.988;8.450;2024-02-21T00:27:23;7.70;99.90
21815;DHT22;11069;48.988;8.450;2024-02-21T00:29:49;7.80;99.90
21815;DHT22;11069;48.988;8.450;2024-02-21T00:32:14;7.80;99.90
21815;DHT22;11069;48.988;8.450;2024-02-21T00:34:40;7.70;99.90
21815;DHT22;11069;48.988;8.450;2024-02-21T00:37:05;7.80;99.90
21815;DHT22;11069;48.988;8.450;2024-02-21T00:39:31;7.80;99.90
21815;DHT22;11069;48.988;8.450;2024-02-21T00:41:57;7.90;99.90
21815;DHT22;11069;48.988;8.450;2024-02-21T00:44:22;7.90;99.90
21815;DHT22;11069;48.988;8.450;2024-02-21T00:46:48;7.90;99.90
21815;DHT22;11069;48.988;8.450;2024-02-21T00:49:14;7.90;99.90
21815;DHT22;11069;48.988;8.450;2024-02-21T00:51:39;7.80;99.90
21815;DHT22;11069;48.988;8.450;2024-02-21T00:54:05;7.90;99.90
21815;DHT22;11069;48.988;8.450;2024-02-21T00:56:31;7.90;99.90
21815;DHT22;11069;48.988;8.450;2024-02-21T00:58:57;7.90;99.90
21815;DHT22;11069;48.988;8.450;2024-02-21T01:01:23;7.90;99.90
21815;DHT22;11069;48.988;8.450;2024-02-21T01:03:50;8.00;99.90
21815;DHT22;11069;48.988;8.450;2024-02-21T01:06:21;8.00;99.90
21815;DHT22;11069;48.988;8.450;2024-02-21T01:08:47;8.10;99.90
21815;DHT22;11069;48.988;8.450;2024-02-21T01:11:14;8.00;99.90
21815;DHT22;11069;48.988;8.450;2024-02-21T01:13:39;8.00;99.90
21815;DHT22;11069;48.988;8.450;2024-02-21T01:16:06;7.90;99.90
21815;DHT22;11069;48.988;8.450;2024-02-21T01:18:33;7.70;99.90
21815;DHT22;11069;48.988;8.450;2024-02-21T01:20:58;7.60;99.90
21815;DHT22;11069;48.988;8.450;2024-02-21T01:23:24;7.60;99.90
21815;DHT22;11069;48.988;8.450;2024-02-21T01:25:50;7.50;99.90
21815;DHT22;11069;48.988;8.450;2024-02-21T01:28:16;7.50;99.90
21815;DHT22;11069;48.988;8.450;2024-02-21T01:30:42;7.40;99.90
21815;DHT22;11069;48.988;8.450;2024-02-21T01:33:07;7.30;99.90
21815;DHT22;11069;48.988;8.450;2024-02-21T01:35:34;7.20;99.90
21815;DHT22;11069;48.988;8.450;2024-02-21T01:38:00;7.20;99.90
21815;DHT22;11069;48.988;8.450;2024-02-21T01:40:25;7.10;99.90
21815;DHT22;11069;48.988;8.450;2024-02-21T01:42:51;7.10;99.90
21815;DHT22;11069;48.988;8.450;2024-02-21T01:45:19;7.10;99.90
21815;DHT22;11069;48.988;8.450;2024-02-21T01:47:44;7.10;99.90
21815;DHT22;11069;48.988;8.450;2024-02-21T01:50:12;7.00;99.90
21815;DHT22;11069;48.988;8.450;2024-02-21T01:52:38;7.00;99.90
21815;DHT22;11069;48.988;8.450;2024-02-21T01:55:05;7.00;99.90
21815;DHT22;11069;48.988;8.450;2024-02-21T01:57:31;7.00;99.90
21815;DHT22;11069;48.988;8.450;2024-02-21T01:59:57;7.00;99.90
21815;DHT22;11069;48.988;8.450;2024-02-21T02:02:23;7.00;99.90
21815;DHT22;11069;48.988;8.450;2024-02-21T02:04:50;6.90;99.90
21815;DHT22;11069;48.988;8.450;2024-02-21T02:07:15;6.90;99.90
21815;DHT22;11069;48.988;8.450;2024-02-21T02:09:41;7.00;99.90
21815;DHT22;11069;48.988;8.450;2024-02-21T02:12:07;7.00;99.90
21815;DHT22;11069;48.988;8.450;2024-02-21T02:14:33;7.00;99.90
21815;DHT22;11069;48.988;8.450;2024-02-21T02:16:59;6.90;99.90
21815;DHT22;11069;48.988;8.450;2024-02-21T02:19:24;6.80;99.90
21815;DHT22;11069;48.988;8.450;2024-02-21T02:21:53;6.90;99.90
21815;DHT22;11069;48.988;8.450;2024-02-21T02:24:22;6.90;99.90
21815;DHT22;11069;48.988;8.450;2024-02-21T02:26:49;6.90;99.90
21815;DHT22;11069;48.988;8.450;2024-02-21T02:29:14;6.90;99.90
21815;DHT22;11069;48.988;8.450;2024-02-21T02:31:40;6.80;99.90
21815;DHT22;11069;48.988;8.450;2024-02-21T02:34:05;6.90;99.90
21815;DHT22;11069;48.988;8.450;2024-02-21T02:36:35;6.90;99.90
21815;DHT22;11069;48.988;8.450;2024-02-21T02:39:01;6.90;99.90
21815;DHT22;11069;48.988;8.450;2024-02-21T02:41:26;6.80;99.90
21815;DHT22;11069;48.988;8.450;2024-02-21T02:43:52;6.70;99.90
21815;DHT22;11069;48.988;8.450;2024-02-21T02:46:18;6.70;99.90
21815;DHT22;11069;48.988;8.450;2024-02-21T02:48:43;6.70;99.90
21815;DHT22;11069;48.988;8.450;2024-02-21T02:51:10;6.60;99.90
21815;DHT22;11069;48.988;8.450;2024-02-21T02:53:36;6.60;99.90
21815;DHT22;11069;48.988;8.450;2024-02-21T02:56:01;6.60;99.90
21815;DHT22;11069;48.988;8.450;2024-02-21T02:58:28;6.60;99.90
21815;DHT22;11069;48.988;8.450;2024-02-21T03:00:54;6.50;99.90
21815;DHT22;11069;48.988;8.450;2024-02-21T03:03:19;6.50;99.90
21815;DHT22;11069;48.988;8.450;2024-02-21T03:05:46;6.50;99.90
21815;DHT22;11069;48.988;8.450;2024-02-21T03:08:11;6.30;99.90
21815;DHT22;11069;48.988;8.450;2024-02-21T03:10:37;6.30;99.90
21815;DHT22;11069;48.988;8.450;2024-02-21T03:13:03;6.30;99.90
21815;DHT22;11069;48.988;8.450;2024-02-21T03:15:29;6.30;99.90
21815;DHT22;11069;48.988;8.450;2024-02-21T03:17:54;6.30;99.90
21815;DHT22;11069;48.988;8.450;2024-02-21T03:20:20;6.20;99.90
21815;DHT22;11069;48.988;8.450;2024-02-21T03:22:45;6.20;99.90
21815;DHT22;11069;48.988;8.450;2024-02-21T03:25:11;6.10;99.90
21815;DHT22;11069;48.988;8.450;2024-02-21T03:27:38;6.10;99.90
21815;DHT22;11069;48.988;8.450;2024-02-21T03:30:04;6.10;99.90
21815;DHT22;11069;48.988;8.450;2024-02-21T03:32:30;6.10;99.90
21815;DHT22;11069;48.988;8.450;2024-02-21T03:34:56;6.10;99.90
21815;DHT22;11069;48.988;8.450;2024-02-21T03:37:21;6.20;99.90
21815;DHT22;11069;48.988;8.450;2024-02-21T03:39:47;6.10;99.90
21815;DHT22;11069;48.988;8.450;2024-02-21T03:42:13;6.10;99.90
21815;DHT22;11069;48.988;8.450;2024-02-21T03:44:39;6.10;99.90
21815;DHT22;11069;48.988;8.450;2024-02-21T03:47:04;6.10;99.90
21815;DHT22;11069;48.988;8.450;2024-02-21T03:49:30;6.20;99.90
21815;DHT22;11069;48.988;8.450;2024-02-21T03:51:56;6.10;99.90
21815;DHT22;11069;48.988;8.450;2024-02-21T03:54:21;6.20;99.90
21815;DHT22;11069;48.988;8.450;2024-02-21T03:56:47;6.20;99.90
21815;DHT22;11069;48.988;8.450;2024-02-21T03:59:14;6.10;99.90
21815;DHT22;11069;48.988;8.450;2024-02-21T04:01:39;6.10;99.90
21815;DHT22;11069;48.988;8.450;2024-02-21T04:04:05;6.00;99.90
21815;DHT22;11069;48.988;8.450;2024-02-21T04:06:31;5.90;99.90
21815;DHT22;11069;48.988;8.450;2024-02-21T04:08:57;5.80;99.90
21815;DHT22;11069;48.988;8.450;2024-02-21T04:11:22;5.80;99.90
21815;DHT22;11069;48.988;8.450;2024-02-21T04:13:48;5.80;99.90
21815;DHT22;11069;48.988;8.450;2024-02-21T04:16:15;5.80;99.90
21815;DHT22;11069;48.988;8.450;2024-02-21T04:18:41;5.70;99.90
21815;DHT22;11069;48.988;8.450;2024-02-21T04:21:08;5.70;99.90
21815;DHT22;11069;48.988;8.450;2024-02-21T04:23:33;5.70;99.90
21815;DHT22;11069;48.988;8.450;2024-02-21T04:25:59;5.60;99.90
21815;DHT22;11069;48.988;8.450;2024-02-21T04:28:24;5.60;99.90
21815;DHT22;11069;48.988;8.450;2024-02-21T04:30:50;5.60;99.90
21815;DHT22;11069;48.988;8.450;2024-02-21T04:33:15;5.70;99.90
21815;DHT22;11069;48.988;8.450;2024-02-21T04:35:41;5.70;99.90
21815;DHT22;11069;48.988;8.450;2024-02-21T04:38:07;5.70;99.90
21815;DHT22;11069;48.988;8.450;2024-02-21T04:40:32;5.60;99.90
21815;DHT22;11069;48.988;8.450;2024-02-21T04:42:58;5.60;99.90
21815;DHT22;11069;48.988;8.450;2024-02-21T04:45:23;5.60;99.90
21815;DHT22;11069;48.988;8.450;2024-02-21T04:47:49;5.70;99.90
21815;DHT22;11069;48.988;8.450;2024-02-21T04:50:14;5.70;99.90
21815;DHT22;11069;48.988;8.450;2024-02-21T04:52:41;5.70;99.90
21815;DHT22;11069;48.988;8.450;2024-02-21T04:55:06;5.80;99.90
21815;DHT22;11069;48.988;8.450;2024-02-21T04:57:32;5.80;99.90
21815;DHT22;11069;48.988;8.450;2024-02-21T04:59:58;5.90;99.90
21815;DHT22;11069;48.988;8.450;2024-02-21T05:02:23;5.80;99.90
21815;DHT22;11069;48.988;8.450;2024-02-21T05:04:50;5.80;99.90
21815;DHT22;11069;48.988;8.450;2024-02-21T05:07:16;5.80;99.90
21815;DHT22;11069;48.988;8.450;2024-02-21T05:09:45;5.80;99.90
21815;DHT22;11069;48.988;8.450;2024-02-21T05:12:11;5.70;99.90
21815;DHT22;11069;48.988;8.450;2024-02-21T05:14:37;5.60;99.90
21815;DHT22;11069;48.988;8.450;2024-02-21T05:17:04;5.50;99.90
21815;DHT22;11069;48.988;8.450;2024-02-21T05:19:29;5.40;99.90
21815;DHT22;11069;48.988;8.450;2024-02-21T05:21:55;5.40;99.90
21815;DHT22;11069;48.988;8.450;2024-02-21T05:24:20;5.30;99.90
21815;DHT22;11069;48.988;8.450;2024-02-21T05:26:46;5.30;99.90
21815;DHT22;11069;48.988;8.450;2024-02-21T05:29:11;5.20;99.90
21815;DHT22;11069;48.988;8.450;2024-02-21T05:32:03;5.20;99.90
21815;DHT22;11069;48.988;8.450;2024-02-21T05:34:29;5.10;99.90
21815;DHT22;11069;48.988;8.450;2024-02-21T05:36:54;5.00;99.90
21815;DHT22;11069;48.988;8.450;2024-02-21T05:39:20;5.10;99.90
21815;DHT22;11069;48.988;8.450;2024-02-21T05:41:48;5.00;99.90
21815;DHT22;11069;48.988;8.450;2024-02-21T05:44:14;4.90;99.90
21815;DHT22;11069;48.988;8.450;2024-02-21T05:46:39;4.70;99.90
21815;DHT22;11069;48.988;8.450;2024-02-21T05:49:05;4.70;99.90
21815;DHT22;11069;48.988;8.450;2024-02-21T05:51:35;4.50;99.90
21815;DHT22;11069;48.988;8.450;2024-02-21T05:54:01;4.50;99.90
21815;DHT22;11069;48.988;8.450;2024-02-21T05:56:26;4.60;99.90
21815;DHT22;11069;48.988;8.450;2024-02-21T05:58:52;4.60;99.90
21815;DHT22;11069;48.988;8.450;2024-02-21T06:01:18;4.60;99.90
21815;DHT22;11069;48.988;8.450;2024-02-21T06:03:44;4.70;99.90
21815;DHT22;11069;48.988;8.450;2024-02-21T06:06:09;4.80;99.90
21815;DHT22;11069;48.988;8.450;2024-02-21T06:08:35;4.80;99.90
21815;DHT22;11069;48.988;8.450;2024-02-21T06:11:00;4.80;99.90
21815;DHT22;11069;48.988;8.450;2024-02-21T06:13:26;4.70;99.90
21815;DHT22;11069;48.988;8.450;2024-02-21T06:15:52;4.70;99.90
21815;DHT22;11069;48.988;8.450;2024-02-21T06:18:18;4.70;99.90
21815;DHT22;11069;48.988;8.450;2024-02-21T06:20:44;4.50;99.90
21815;DHT22;11069;48.988;8.450;2024-02-21T06:23:11;4.60;99.90
21815;DHT22;11069;48.988;8.450;2024-02-21T06:25:38;4.70;99.90
21815;DHT22;11069;48.988;8.450;2024-02-21T06:28:04;4.90;99.90
21815;DHT22;11069;48.988;8.450;2024-02-21T06:30:30;4.90;99.90
21815;DHT22;11069;48.988;8.450;2024-02-21T06:32:55;4.90;99.90
21815;DHT22;11069;48.988;8.450;2024-02-21T06:35:21;5.00;99.90
21815;DHT22;11069;48.988;8.450;2024-02-21T06:37:50;5.00;99.90
21815;DHT22;11069;48.988;8.450;2024-02-21T06:40:17;5.10;99.90
21815;DHT22;11069;48.988;8.450;2024-02-21T06:42:43;5.10;99.90
21815;DHT22;11069;48.988;8.450;2024-02-21T06:45:09;5.10;99.90
21815;DHT22;11069;48.988;8.450;2024-02-21T06:47:34;5.10;99.90
21815;DHT22;11069;48.988;8.450;2024-02-21T06:50:00;5.20;99.90
21815;DHT22;11069;48.988;8.450;2024-02-21T06:52:25;5.30;99.90
21815;DHT22;11069;48.988;8.450;2024-02-21T06:54:52;5.30;99.90
21815;DHT22;11069;48.988;8.450;2024-02-21T06:57:17;5.40;99.90
21815;DHT22;11069;48.988;8.450;2024-02-21T06:59:43;5.40;99.90
21815;DHT22;11069;48.988;8.450;2024-02-21T07:02:09;5.50;99.90
21815;DHT22;11069;48.988;8.450;2024-02-21T07:04:34;5.60;99.90
21815;DHT22;11069;48.988;8.450;2024-02-21T07:07:00;5.80;99.90
21815;DHT22;11069;48.988;8.450;2024-02-21T07:09:26;5.90;99.90
21815;DHT22;11069;48.988;8.450;2024-02-21T07:11:54;6.10;99.90
21815;DHT22;11069;48.988;8.450;2024-02-21T07:14:19;6.20;99.90
21815;DHT22;11069;48.988;8.450;2024-02-21T07:16:45;6.30;99.90
21815;DHT22;11069;48.988;8.450;2024-02-21T07:19:10;6.40;99.90
21815;DHT22;11069;48.988;8.450;2024-02-21T07:21:36;6.50;99.90
21815;DHT22;11069;48.988;8.450;2024-02-21T07:24:04;6.70;99.90
21815;DHT22;11069;48.988;8.450;2024-02-21T07:26:31;6.90;99.90
21815;DHT22;11069;48.988;8.450;2024-02-21T07:28:56;7.00;99.90
21815;DHT22;11069;48.988;8.450;2024-02-21T07:31:22;7.10;99.90
21815;DHT22;11069;48.988;8.450;2024-02-21T07:33:47;7.00;99.90
21815;DHT22;11069;48.988;8.450;2024-02-21T07:36:15;7.10;99.90
21815;DHT22;11069;48.988;8.450;2024-02-21T07:38:41;7.30;99.90
21815;DHT22;11069;48.988;8.450;2024-02-21T07:41:07;7.50;99.90
21815;DHT22;11069;48.988;8.450;2024-02-21T07:43:32;7.50;99.90
21815;DHT22;11069;48.988;8.450;2024-02-21T07:45:58;7.50;99.90
21815;DHT22;11069;48.988;8.450;2024-02-21T07:48:24;7.50;99.90
21815;DHT22;11069;48.988;8.450;2024-02-21T07:50:52;7.60;99.90
21815;DHT22;11069;48.988;8.450;2024-02-21T07:53:20;7.60;99.90
21815;DHT22;11069;48.988;8.450;2024-02-21T07:55:45;7.60;99.90
21815;DHT22;11069;48.988;8.450;2024-02-21T07:58:11;7.70;99.90
21815;DHT22;11069;48.988;8.450;2024-02-21T08:00:36;7.80;99.90
21815;DHT22;11069;48.988;8.450;2024-02-21T08:03:02;7.80;99.90
21815;DHT22;11069;48.988;8.450;2024-02-21T08:05:28;7.90;99.90
21815;DHT22;11069;48.988;8.450;2024-02-21T08:07:55;7.90;99.90
21815;DHT22;11069;48.988;8.450;2024-02-21T08:10:21;8.00;99.90
21815;DHT22;11069;48.988;8.450;2024-02-21T08:12:46;8.00;99.90
21815;DHT22;11069;48.988;8.450;2024-02-21T08:15:12;8.30;99.90
21815;DHT22;11069;48.988;8.450;2024-02-21T08:17:38;8.60;99.90
21815;DHT22;11069;48.988;8.450;2024-02-21T08:20:04;8.60;99.90
21815;DHT22;11069;48.988;8.450;2024-02-21T08:22:30;8.60;99.90
21815;DHT22;11069;48.988;8.450;2024-02-21T08:24:56;8.60;99.90
21815;DHT22;11069;48.988;8.450;2024-02-21T08:27:21;8.50;99.90
21815;DHT22;11069;48.988;8.450;2024-02-21T08:29:47;8.40;99.90
21815;DHT22;11069;48.988;8.450;2024-02-21T08:32:13;8.30;99.90
21815;DHT22;11069;48.988;8.450;2024-02-21T08:34:38;8.10;99.90
21815;DHT22;11069;48.988;8.450;2024-02-21T08:37:04;8.10;99.90
21815;DHT22;11069;48.988;8.450;2024-02-21T08:39:30;8.20;99.90
21815;DHT22;11069;48.988;8.450;2024-02-21T08:41:56;8.20;99.90
21815;DHT22;11069;48.988;8.450;2024-02-21T08:44:23;8.20;99.90
21815;DHT22;11069;48.988;8.450;2024-02-21T08:46:51;8.20;99.90
21815;DHT22;11069;48.988;8.450;2024-02-21T08:49:17;8.40;99.90
21815;DHT22;11069;48.988;8.450;2024-02-21T08:51:43;8.50;99.90
21815;DHT22;11069;48.988;8.450;2024-02-21T08:54:09;8.50;99.90
21815;DHT22;11069;48.988;8.450;2024-02-21T08:56:34;8.50;99.90
21815;DHT22;11069;48.988;8.450;2024-02-21T08:59:01;8.60;99.90
21815;DHT22;11069;48.988;8.450;2024-02-21T09:01:27;8.80;99.90
21815;DHT22;11069;48.988;8.450;2024-02-21T09:03:53;8.90;99.90
21815;DHT22;11069;48.988;8.450;2024-02-21T09:06:19;9.00;99.90
21815;DHT22;11069;48.988;8.450;2024-02-21T09:08:46;9.20;99.90
21815;DHT22;11069;48.988;8.450;2024-02-21T09:11:11;9.40;99.90
21815;DHT22;11069;48.988;8.450;2024-02-21T09:13:37;9.60;99.90
21815;DHT22;11069;48.988;8.450;2024-02-21T09:16:03;9.80;99.90
21815;DHT22;11069;48.988;8.450;2024-02-21T09:18:29;9.90;99.90
21815;DHT22;11069;48.988;8.450;2024-02-21T09:20:55;10.20;99.90
21815;DHT22;11069;48.988;8.450;2024-02-21T09:23:20;10.30;99.90
21815;DHT22;11069;48.988;8.450;2024-02-21T09:25:49;10.50;99.90
21815;DHT22;11069;48.988;8.450;2024-02-21T09:28:14;10.30;99.90
21815;DHT22;11069;48.988;8.450;2024-02-21T09:30:40;10.30;99.90
21815;DHT22;11069;48.988;8.450;2024-02-21T09:33:05;10.50;99.90
21815;DHT22;11069;48.988;8.450;2024-02-21T09:35:31;10.90;99.90
21815;DHT22;11069;48.988;8.450;2024-02-21T09:37:59;11.60;99.90
21815;DHT22;11069;48.988;8.450;2024-02-21T09:40:25;11.80;99.90
21815;DHT22;11069;48.988;8.450;2024-02-21T09:42:55;11.60;99.90
21815;DHT22;11069;48.988;8.450;2024-02-21T09:45:24;11.60;99.90
21815;DHT22;11069;48.988;8.450;2024-02-21T09:50:47;11.20;99.90
21815;DHT22;11069;48.988;8.450;2024-02-21T09:53:14;11.20;99.90
21815;DHT22;11069;48.988;8.450;2024-02-21T09:55:40;11.40;99.90
21815;DHT22;11069;48.988;8.450;2024-02-21T09:58:10;11.40;99.90
21815;DHT22;11069;48.988;8.450;2024-02-21T10:00:36;11.40;99.90
21815;DHT22;11069;48.988;8.450;2024-02-21T10:03:03;11.60;99.90
21815;DHT22;11069;48.988;8.450;2024-02-21T10:05:34;11.50;99.90
21815;DHT22;11069;48.988;8.450;2024-02-21T10:08:01;11.50;99.90
21815;DHT22;11069;48.988;8.450;2024-02-21T10:10:27;11.30;99.90
21815;DHT22;11069;48.988;8.450;2024-02-21T10:12:53;11.00;99.90
21815;DHT22;11069;48.988;8.450;2024-02-21T10:15:24;10.90;99.90
21815;DHT22;11069;48.988;8.450;2024-02-21T10:17:57;10.80;99.90
21815;DHT22;11069;48.988;8.450;2024-02-21T10:20:23;10.70;99.90
21815;DHT22;11069;48.988;8.450;2024-02-21T10:22:59;10.80;99.90
21815;DHT22;11069;48.988;8.450;2024-02-21T10:25:25;10.80;99.90
21815;DHT22;11069;48.988;8.450;2024-02-21T10:27:50;10.80;99.90
21815;DHT22;11069;48.988;8.450;2024-02-21T10:30:16;10.80;99.90
21815;DHT22;11069;48.988;8.450;2024-02-21T10:32:55;11.00;99.90
21815;DHT22;11069;48.988;8.450;2024-02-21T10:35:27;11.50;99.90
21815;DHT22;11069;48.988;8.450;2024-02-21T10:37:55;11.60;99.90
21815;DHT22;11069;48.988;8.450;2024-02-21T10:40:29;11.60;99.90
21815;DHT22;11069;48.988;8.450;2024-02-21T10:42:59;11.70;99.90
21815;DHT22;11069;48.988;8.450;2024-02-21T10:45:32;11.80;99.90
21815;DHT22;11069;48.988;8.450;2024-02-21T10:48:13;11.90;99.90
21815;DHT22;11069;48.988;8.450;2024-02-21T10:53:40;12.00;99.90
21815;DHT22;11069;48.988;8.450;2024-02-21T10:56:21;12.30;99.90
21815;DHT22;11069;48.988;8.450;2024-02-21T10:58:49;12.50;99.90
21815;DHT22;11069;48.988;8.450;2024-02-21T11:01:14;12.50;99.90
21815;DHT22;11069;48.988;8.450;2024-02-21T11:03:42;12.60;99.90
21815;DHT22;11069;48.988;8.450;2024-02-21T11:06:10;12.50;99.90
21815;DHT22;11069;48.988;8.450;2024-02-21T11:08:37;12.50;99.90
21815;DHT22;11069;48.988;8.450;2024-02-21T11:11:05;12.50;99.90
21815;DHT22;11069;48.988;8.450;2024-02-21T11:13:37;12.50;99.90
21815;DHT22;11069;48.988;8.450;2024-02-21T11:16:07;12.60;99.90
21815;DHT22;11069;48.988;8.450;2024-02-21T11:18:34;12.80;99.90
21815;DHT22;11069;48.988;8.450;2024-02-21T11:21:00;12.80;99.90
21815;DHT22;11069;48.988;8.450;2024-02-21T11:23:26;12.80;99.90
21815;DHT22;11069;48.988;8.450;2024-02-21T11:25:52;12.80;99.90
21815;DHT22;11069;48.988;8.450;2024-02-21T11:28:25;12.90;99.90
21815;DHT22;11069;48.988;8.450;2024-02-21T11:30:51;12.80;99.90
21815;DHT22;11069;48.988;8.450;2024-02-21T11:33:16;12.80;99.90
21815;DHT22;11069;48.988;8.450;2024-02-21T11:35:42;12.80;99.90
21815;DHT22;11069;48.988;8.450;2024-02-21T11:38:12;12.90;99.90
21815;DHT22;11069;48.988;8.450;2024-02-21T11:40:45;12.90;99.90
21815;DHT22;11069;48.988;8.450;2024-02-21T11:43:11;12.80;99.90
21815;DHT22;11069;48.988;8.450;2024-02-21T11:45:37;12.90;99.90
21815;DHT22;11069;48.988;8.450;2024-02-21T11:48:06;12.90;99.90
21815;DHT22;11069;48.988;8.450;2024-02-21T11:50:31;12.70;99.90
21815;DHT22;11069;48.988;8.450;2024-02-21T11:52:57;12.70;99.90
21815;DHT22;11069;48.988;8.450;2024-02-21T11:55:23;12.70;99.90
21815;DHT22;11069;48.988;8.450;2024-02-21T11:57:49;12.80;99.90
21815;DHT22;11069;48.988;8.450;2024-02-21T12:00:19;12.60;99.90
21815;DHT22;11069;48.988;8.450;2024-02-21T12:02:50;12.70;99.90
21815;DHT22;11069;48.988;8.450;2024-02-21T12:05:16;12.70;99.90
21815;DHT22;11069;48.988;8.450;2024-02-21T12:07:44;12.60;99.90
21815;DHT22;11069;48.988;8.450;2024-02-21T12:10:11;12.40;99.90
21815;DHT22;11069;48.988;8.450;2024-02-21T12:12:37;12.70;99.90
21815;DHT22;11069;48.988;8.450;2024-02-21T12:15:04;12.80;99.90
21815;DHT22;11069;48.988;8.450;2024-02-21T12:17:34;12.80;99.90
21815;DHT22;11069;48.988;8.450;2024-02-21T12:20:01;13.00;99.90
21815;DHT22;11069;48.988;8.450;2024-02-21T12:22:26;12.80;99.90
21815;DHT22;11069;48.988;8.450;2024-02-21T12:24:53;12.90;99.90
21815;DHT22;11069;48.988;8.450;2024-02-21T12:27:19;13.10;99.90
21815;DHT22;11069;48.988;8.450;2024-02-21T12:29:45;13.00;99.90
21815;DHT22;11069;48.988;8.450;2024-02-21T12:32:11;13.20;99.90
21815;DHT22;11069;48.988;8.450;2024-02-21T12:34:36;13.10;99.90
21815;DHT22;11069;48.988;8.450;2024-02-21T12:37:02;13.10;99.90
21815;DHT22;11069;48.988;8.450;2024-02-21T12:39:28;13.20;99.90
21815;DHT22;11069;48.988;8.450;2024-02-21T12:41:54;13.20;99.90
21815;DHT22;11069;48.988;8.450;2024-02-21T12:44:21;13.20;99.90
21815;DHT22;11069;48.988;8.450;2024-02-21T12:46:47;13.10;99.90
21815;DHT22;11069;48.988;8.450;2024-02-21T12:49:17;13.10;99.90
21815;DHT22;11069;48.988;8.450;2024-02-21T12:51:43;13.10;99.90
21815;DHT22;11069;48.988;8.450;2024-02-21T12:54:09;13.10;99.90
21815;DHT22;11069;48.988;8.450;2024-02-21T12:56:36;12.80;99.90
21815;DHT22;11069;48.988;8.450;2024-02-21T12:59:03;12.90;99.90
21815;DHT22;11069;48.988;8.450;2024-02-21T13:01:28;12.80;99.90
21815;DHT22;11069;48.988;8.450;2024-02-21T13:03:54;12.70;99.90
21815;DHT22;11069;48.988;8.450;2024-02-21T13:06:21;12.90;99.90
21815;DHT22;11069;48.988;8.450;2024-02-21T13:08:46;12.90;99.90
21815;DHT22;11069;48.988;8.450;2024-02-21T13:11:12;12.90;99.90
21815;DHT22;11069;48.988;8.450;2024-02-21T13:13:38;12.90;99.90
21815;DHT22;11069;48.988;8.450;2024-02-21T13:16:04;13.10;99.90
21815;DHT22;11069;48.988;8.450;2024-02-21T13:18:30;13.20;99.90
21815;DHT22;11069;48.988;8.450;2024-02-21T13:20:56;13.20;99.90
21815;DHT22;11069;48.988;8.450;2024-02-21T13:23:21;13.20;99.90
21815;DHT22;11069;48.988;8.450;2024-02-21T13:25:47;13.20;99.90
21815;DHT22;11069;48.988;8.450;2024-02-21T13:28:13;13.00;99.90
21815;DHT22;11069;48.988;8.450;2024-02-21T13:30:40;12.90;99.90
21815;DHT22;11069;48.988;8.450;2024-02-21T13:33:07;13.00;99.90
21815;DHT22;11069;48.988;8.450;2024-02-21T13:35:32;13.00;99.90
21815;DHT22;11069;48.988;8.450;2024-02-21T13:37:58;12.70;99.90
21815;DHT22;11069;48.988;8.450;2024-02-21T13:40:24;12.70;99.90
21815;DHT22;11069;48.988;8.450;2024-02-21T13:42:51;12.70;99.90
21815;DHT22;11069;48.988;8.450;2024-02-21T13:45:17;12.60;99.90
21815;DHT22;11069;48.988;8.450;2024-02-21T13:47:42;12.50;99.90
21815;DHT22;11069;48.988;8.450;2024-02-21T13:50:08;12.50;99.90
21815;DHT22;11069;48.988;8.450;2024-02-21T13:52:36;12.50;99.90
21815;DHT22;11069;48.988;8.450;2024-02-21T13:55:02;12.60;99.90
21815;DHT22;11069;48.988;8.450;2024-02-21T13:57:28;12.60;99.90
21815;DHT22;11069;48.988;8.450;2024-02-21T13:59:54;12.50;99.90
21815;DHT22;11069;48.988;8.450;2024-02-21T14:02:20;12.60;99.90
21815;DHT22;11069;48.988;8.450;2024-02-21T14:04:46;12.60;99.90
21815;DHT22;11069;48.988;8.450;2024-02-21T14:07:12;12.70;99.90
21815;DHT22;11069;48.988;8.450;2024-02-21T14:09:38;12.70;99.90
21815;DHT22;11069;48.988;8.450;2024-02-21T14:12:04;12.80;99.90
21815;DHT22;11069;48.988;8.450;2024-02-21T14:14:36;12.90;99.90
21815;DHT22;11069;48.988;8.450;2024-02-21T14:17:02;12.90;99.90
21815;DHT22;11069;48.988;8.450;2024-02-21T14:19:29;13.00;99.90
21815;DHT22;11069;48.988;8.450;2024-02-21T14:21:54;13.10;99.90
21815;DHT22;11069;48.988;8.450;2024-02-21T14:24:20;12.80;99.90
21815;DHT22;11069;48.988;8.450;2024-02-21T14:26:46;12.60;99.90
21815;DHT22;11069;48.988;8.450;2024-02-21T14:29:11;12.50;99.90
21815;DHT22;11069;48.988;8.450;2024-02-21T14:31:38;12.30;99.90
21815;DHT22;11069;48.988;8.450;2024-02-21T14:34:03;12.30;99.90
21815;DHT22;11069;48.988;8.450;2024-02-21T14:36:29;12.50;99.90
21815;DHT22;11069;48.988;8.450;2024-02-21T14:38:54;12.50;99.90
21815;DHT22;11069;48.988;8.450;2024-02-21T14:41:20;12.40;99.90
21815;DHT22;11069;48.988;8.450;2024-02-21T14:43:46;12.30;99.90
21815;DHT22;11069;48.988;8.450;2024-02-21T14:46:12;12.40;99.90
21815;DHT22;11069;48.988;8.450;2024-02-21T14:48:38;12.30;99.90
21815;DHT22;11069;48.988;8.450;2024-02-21T14:51:04;12.50;99.90
21815;DHT22;11069;48.988;8.450;2024-02-21T14:53:30;12.50;99.90
21815;DHT22;11069;48.988;8.450;2024-02-21T14:55:58;12.50;99.90
21815;DHT22;11069;48.988;8.450;2024-02-21T14:58:24;12.60;99.90
21815;DHT22;11069;48.988;8.450;2024-02-21T15:00:49;12.70;99.90
21815;DHT22;11069;48.988;8.450;2024-02-21T15:03:18;12.70;99.90
21815;DHT22;11069;48.988;8.450;2024-02-21T15:05:45;12.70;99.90
21815;DHT22;11069;48.988;8.450;2024-02-21T15:08:11;12.60;99.90
21815;DHT22;11069;48.988;8.450;2024-02-21T15:10:38;12.60;99.90
21815;DHT22;11069;48.988;8.450;2024-02-21T15:13:03;12.50;99.90
21815;DHT22;11069;48.988;8.450;2024-02-21T15:15:29;12.50;99.90
21815;DHT22;11069;48.988;8.450;2024-02-21T15:17:56;12.50;99.90
21815;DHT22;11069;48.988;8.450;2024-02-21T15:20:21;12.20;99.90
21815;DHT22;11069;48.988;8.450;2024-02-21T15:22:47;12.10;99.90
21815;DHT22;11069;48.988;8.450;2024-02-21T15:25:14;12.10;99.90
21815;DHT22;11069;48.988;8.450;2024-02-21T15:27:44;12.10;99.90
21815;DHT22;11069;48.988;8.450;2024-02-21T15:30:10;12.10;99.90
21815;DHT22;11069;48.988;8.450;2024-02-21T15:32:37;12.10;99.90
21815;DHT22;11069;48.988;8.450;2024-02-21T15:35:04;12.00;99.90
21815;DHT22;11069;48.988;8.450;2024-02-21T15:37:31;12.00;99.90
21815;DHT22;11069;48.988;8.450;2024-02-21T15:39:57;12.00;99.90